JAF51E GVAC-EBBR
Flight info
| Callsign | JAF51E |
|---|---|
| Flight time | N/A |
| Altitude | 35000 |
| Route | DIMKI1A DIMKI DCT IPERA N873 LIMAL/N0459F370 N873 ODEGI/N0459F360 N873 SAMAR DCT BEXAL/N0452F380 DCT ZIFOG DCT DEMOS DCT LOTEE DCT AZFIC UN741 ERIGA/N0459F340 DCT GODIX DCT PODEM UN873 BAZOS DCT BELDI DCT VEKIN Z173 ARVOL |
| Aircraft | B38M/M-SDE1FGHILORVWXY/HB1 |
Departure
| Time | 2026-04-26 13:19 |
|---|---|
| Airport | Amílcar Cabral International Airport (GVAC) |
Arrival
| Time | N/A |
|---|---|
| Airport | Brussels Airport (EBBR) |
| Time | Latitude | Longitude | Altitude | Speed | Heading |
|---|---|---|---|---|---|
| 2026-04-26 13:08 | 16.73166 | -22.94512 | 153 ft | 0 kts | 90° |
| 2026-04-26 13:13 | 16.73166 | -22.94519 | 153 ft | 4 kts | 91° |
| 2026-04-26 13:13 | 16.73168 | -22.94547 | 153 ft | 4 kts | 100° |
| 2026-04-26 13:13 | 16.73176 | -22.94574 | 153 ft | 4 kts | 118° |
| 2026-04-26 13:14 | 16.73192 | -22.94592 | 153 ft | 4 kts | 167° |
| 2026-04-26 13:14 | 16.73197 | -22.94593 | 153 ft | 2 kts | 179° |
| 2026-04-26 13:15 | 16.73178 | -22.94592 | 153 ft | 7 kts | 178° |
| 2026-04-26 13:15 | 16.73135 | -22.94590 | 153 ft | 12 kts | 178° |
| 2026-04-26 13:16 | 16.73066 | -22.94642 | 153 ft | 14 kts | 257° |
| 2026-04-26 13:16 | 16.72965 | -22.94690 | 153 ft | 20 kts | 178° |
| 2026-04-26 13:16 | 16.72824 | -22.94689 | 153 ft | 21 kts | 179° |
| 2026-04-26 13:16 | 16.72673 | -22.94688 | 153 ft | 22 kts | 180° |
| 2026-04-26 13:17 | 16.72406 | -22.94748 | 152 ft | 17 kts | 263° |
| 2026-04-26 13:17 | 16.72404 | -22.94838 | 151 ft | 12 kts | 275° |
| 2026-04-26 13:18 | 16.72526 | -22.94888 | 152 ft | 11 kts | 358° |
| 2026-04-26 13:18 | 16.72803 | -22.94889 | 153 ft | 79 kts | 360° |
| 2026-04-26 13:18 | 16.74367 | -22.94909 | 275 ft | 177 kts | 0° |
| 2026-04-26 13:19 | 16.75650 | -22.94988 | 1042 ft | 188 kts | 353° |
| 2026-04-26 13:19 | 16.76947 | -22.95339 | 1842 ft | 205 kts | 351° |
| 2026-04-26 13:19 | 16.78451 | -22.95468 | 2370 ft | 228 kts | 2° |
| 2026-04-26 13:19 | 16.80039 | -22.95430 | 3288 ft | 236 kts | 4° |
| 2026-04-26 13:20 | 16.81723 | -22.95359 | 4107 ft | 249 kts | 3° |
| 2026-04-26 13:20 | 16.83479 | -22.95280 | 5104 ft | 251 kts | 2° |
| 2026-04-26 13:20 | 16.85289 | -22.95204 | 5853 ft | 268 kts | 1° |
| 2026-04-26 13:20 | 16.87178 | -22.95146 | 6718 ft | 274 kts | 0° |
| 2026-04-26 13:21 | 16.89088 | -22.95096 | 7578 ft | 281 kts | 359° |
| 2026-04-26 13:21 | 16.91067 | -22.95025 | 8405 ft | 288 kts | 5° |
| 2026-04-26 13:21 | 16.92976 | -22.94329 | 9213 ft | 297 kts | 30° |
| 2026-04-26 13:21 | 16.94718 | -22.93099 | 9932 ft | 306 kts | 32° |
| 2026-04-26 13:22 | 16.96510 | -22.91833 | 10564 ft | 318 kts | 32° |
| 2026-04-26 13:22 | 16.98395 | -22.90486 | 10950 ft | 338 kts | 32° |
| 2026-04-26 13:22 | 17.00390 | -22.89052 | 11291 ft | 358 kts | 32° |
| 2026-04-26 13:22 | 17.02487 | -22.87540 | 11716 ft | 373 kts | 32° |
| 2026-04-26 13:23 | 17.04656 | -22.85976 | 12201 ft | 385 kts | 32° |
| 2026-04-26 13:23 | 17.06880 | -22.84369 | 12765 ft | 391 kts | 32° |
| 2026-04-26 13:23 | 17.09101 | -22.82764 | 13469 ft | 395 kts | 32° |
| 2026-04-26 13:23 | 17.11372 | -22.81124 | 14102 ft | 399 kts | 32° |
| 2026-04-26 13:24 | 17.13658 | -22.79471 | 14763 ft | 401 kts | 32° |
| 2026-04-26 13:24 | 17.15966 | -22.77802 | 15372 ft | 405 kts | 31° |
| 2026-04-26 13:24 | 17.18292 | -22.76120 | 15970 ft | 408 kts | 31° |
| 2026-04-26 13:24 | 17.20636 | -22.74424 | 16535 ft | 411 kts | 31° |
| 2026-04-26 13:25 | 17.23002 | -22.72712 | 17069 ft | 414 kts | 31° |
| 2026-04-26 13:25 | 17.25351 | -22.71011 | 17610 ft | 416 kts | 31° |
| 2026-04-26 13:25 | 17.27738 | -22.69282 | 18114 ft | 419 kts | 31° |
| 2026-04-26 13:25 | 17.30149 | -22.67536 | 18608 ft | 422 kts | 31° |
| 2026-04-26 13:26 | 17.32563 | -22.65787 | 19064 ft | 425 kts | 31° |
| 2026-04-26 13:26 | 17.35003 | -22.64018 | 19546 ft | 427 kts | 30° |
| 2026-04-26 13:26 | 17.37458 | -22.62238 | 19987 ft | 430 kts | 30° |
| 2026-04-26 13:26 | 17.39918 | -22.60453 | 20448 ft | 432 kts | 30° |
| 2026-04-26 13:27 | 17.42396 | -22.58655 | 20851 ft | 435 kts | 30° |
| 2026-04-26 13:27 | 17.44897 | -22.56840 | 21267 ft | 437 kts | 30° |
| 2026-04-26 13:27 | 17.47401 | -22.55022 | 21644 ft | 440 kts | 30° |
| 2026-04-26 13:27 | 17.49914 | -22.53196 | 22041 ft | 441 kts | 30° |
| 2026-04-26 13:28 | 17.52452 | -22.51352 | 22419 ft | 444 kts | 30° |
| 2026-04-26 13:28 | 17.54994 | -22.49505 | 22779 ft | 446 kts | 30° |
| 2026-04-26 13:28 | 17.57552 | -22.47645 | 23132 ft | 448 kts | 30° |
| 2026-04-26 13:28 | 17.60109 | -22.45785 | 23530 ft | 448 kts | 30° |
| 2026-04-26 13:29 | 17.62682 | -22.43913 | 23915 ft | 449 kts | 29° |
| 2026-04-26 13:29 | 17.64387 | -22.42671 | 24119 ft | 451 kts | 29° |
| 2026-04-26 13:29 | 17.67812 | -22.40178 | 24543 ft | 453 kts | 29° |
| 2026-04-26 13:29 | 17.70418 | -22.38280 | 24823 ft | 455 kts | 29° |
| 2026-04-26 13:30 | 17.73025 | -22.36380 | 25115 ft | 458 kts | 29° |
| 2026-04-26 13:30 | 17.75653 | -22.34465 | 25401 ft | 460 kts | 29° |
| 2026-04-26 13:30 | 17.78280 | -22.32549 | 25666 ft | 462 kts | 29° |
| 2026-04-26 13:30 | 17.80929 | -22.30617 | 25940 ft | 464 kts | 29° |
| 2026-04-26 13:31 | 17.83585 | -22.28679 | 26218 ft | 466 kts | 28° |
| 2026-04-26 13:31 | 17.86254 | -22.26731 | 26483 ft | 468 kts | 28° |
| 2026-04-26 13:31 | 17.88927 | -22.24845 | 26731 ft | 467 kts | 24° |
| 2026-04-26 13:31 | 17.91749 | -22.23159 | 26948 ft | 469 kts | 23° |
| 2026-04-26 13:32 | 17.94586 | -22.21443 | 27206 ft | 471 kts | 23° |
| 2026-04-26 13:32 | 17.97458 | -22.19686 | 27467 ft | 473 kts | 24° |
| 2026-04-26 13:32 | 18.00280 | -22.17951 | 27727 ft | 475 kts | 24° |
| 2026-04-26 13:32 | 18.03123 | -22.16199 | 27980 ft | 477 kts | 24° |
| 2026-04-26 13:33 | 18.05996 | -22.14428 | 28223 ft | 479 kts | 24° |
| 2026-04-26 13:33 | 18.08875 | -22.12653 | 28462 ft | 480 kts | 24° |
| 2026-04-26 13:33 | 18.11767 | -22.10870 | 28709 ft | 482 kts | 23° |
| 2026-04-26 13:33 | 18.14641 | -22.09095 | 28935 ft | 484 kts | 23° |
| 2026-04-26 13:34 | 18.17550 | -22.07300 | 29164 ft | 486 kts | 23° |
| 2026-04-26 13:34 | 18.20471 | -22.05496 | 29387 ft | 487 kts | 23° |
| 2026-04-26 13:34 | 18.23393 | -22.03690 | 29606 ft | 489 kts | 23° |
| 2026-04-26 13:34 | 18.25374 | -22.02466 | 29755 ft | 490 kts | 23° |
| 2026-04-26 13:35 | 18.29281 | -22.00050 | 30080 ft | 491 kts | 23° |
| 2026-04-26 13:35 | 18.32231 | -21.98225 | 30404 ft | 490 kts | 23° |
| 2026-04-26 13:35 | 18.35168 | -21.96407 | 30714 ft | 489 kts | 23° |
| 2026-04-26 13:35 | 18.38104 | -21.94590 | 31018 ft | 489 kts | 22° |
| 2026-04-26 13:36 | 18.41033 | -21.92776 | 31293 ft | 489 kts | 23° |
| 2026-04-26 13:36 | 18.43962 | -21.90961 | 31645 ft | 487 kts | 22° |
| 2026-04-26 13:36 | 18.46877 | -21.89154 | 31961 ft | 486 kts | 22° |
| 2026-04-26 13:36 | 18.49794 | -21.87346 | 32273 ft | 486 kts | 22° |
| 2026-04-26 13:37 | 18.52708 | -21.85538 | 32587 ft | 485 kts | 22° |
| 2026-04-26 13:37 | 18.55617 | -21.83733 | 32906 ft | 484 kts | 22° |
| 2026-04-26 13:37 | 18.58514 | -21.81934 | 33212 ft | 483 kts | 22° |
| 2026-04-26 13:37 | 18.61414 | -21.80133 | 33526 ft | 483 kts | 22° |
| 2026-04-26 13:38 | 18.64302 | -21.78338 | 33822 ft | 482 kts | 22° |
| 2026-04-26 13:38 | 18.67187 | -21.76546 | 34118 ft | 481 kts | 21° |
| 2026-04-26 13:38 | 18.70033 | -21.74776 | 34367 ft | 482 kts | 21° |
| 2026-04-26 13:38 | 18.72939 | -21.72968 | 34468 ft | 486 kts | 21° |
| 2026-04-26 13:39 | 18.75848 | -21.71158 | 34651 ft | 487 kts | 21° |
| 2026-04-26 13:39 | 18.78777 | -21.69334 | 34910 ft | 487 kts | 21° |
| 2026-04-26 13:39 | 18.81697 | -21.67515 | 35036 ft | 488 kts | 21° |
| 2026-04-26 13:40 | 18.87548 | -21.63869 | 35010 ft | 486 kts | 21° |
| 2026-04-26 13:40 | 18.93378 | -21.60233 | 35014 ft | 486 kts | 21° |
| 2026-04-26 13:41 | 18.99158 | -21.56624 | 35018 ft | 485 kts | 21° |
| 2026-04-26 13:41 | 19.04972 | -21.52993 | 35023 ft | 485 kts | 21° |
| 2026-04-26 13:42 | 19.10791 | -21.49355 | 35014 ft | 486 kts | 21° |
| 2026-04-26 13:42 | 19.16622 | -21.45706 | 35013 ft | 487 kts | 21° |
| 2026-04-26 13:43 | 19.22452 | -21.42054 | 35013 ft | 487 kts | 21° |
| 2026-04-26 13:43 | 19.28281 | -21.38401 | 35009 ft | 487 kts | 21° |
| 2026-04-26 13:44 | 19.34103 | -21.34749 | 35008 ft | 487 kts | 21° |
| 2026-04-26 13:44 | 19.39928 | -21.31091 | 35010 ft | 487 kts | 21° |
| 2026-04-26 13:45 | 19.45735 | -21.27453 | 34981 ft | 487 kts | 20° |
| 2026-04-26 13:45 | 19.51560 | -21.23786 | 35018 ft | 488 kts | 20° |
| 2026-04-26 13:46 | 19.57389 | -21.20118 | 35005 ft | 487 kts | 20° |
| 2026-04-26 13:46 | 19.63223 | -21.16439 | 35000 ft | 487 kts | 20° |
| 2026-04-26 13:47 | 19.69049 | -21.12763 | 35000 ft | 487 kts | 21° |
| 2026-04-26 13:47 | 19.74845 | -21.09104 | 35004 ft | 487 kts | 21° |
| 2026-04-26 13:48 | 19.80677 | -21.05420 | 34996 ft | 489 kts | 21° |
| 2026-04-26 13:48 | 19.86532 | -21.01719 | 35002 ft | 489 kts | 21° |
| 2026-04-26 13:49 | 19.92337 | -20.98045 | 35005 ft | 489 kts | 21° |
| 2026-04-26 13:49 | 19.98175 | -20.94349 | 34997 ft | 489 kts | 21° |
| 2026-04-26 13:50 | 20.04032 | -20.90637 | 34985 ft | 489 kts | 21° |
| 2026-04-26 13:50 | 20.09834 | -20.86957 | 34984 ft | 489 kts | 20° |
| 2026-04-26 13:51 | 20.15674 | -20.83264 | 35006 ft | 488 kts | 21° |
| 2026-04-26 13:51 | 20.21514 | -20.79539 | 34973 ft | 490 kts | 21° |
| 2026-04-26 13:52 | 20.27371 | -20.75814 | 34981 ft | 490 kts | 21° |
| 2026-04-26 13:52 | 20.33230 | -20.72085 | 35003 ft | 490 kts | 21° |
| 2026-04-26 13:53 | 20.39079 | -20.68353 | 34987 ft | 490 kts | 21° |
| 2026-04-26 13:53 | 20.44935 | -20.64614 | 34998 ft | 490 kts | 21° |
| 2026-04-26 13:54 | 20.50781 | -20.60877 | 34989 ft | 490 kts | 21° |
| 2026-04-26 13:54 | 20.56602 | -20.57153 | 34985 ft | 490 kts | 21° |
| 2026-04-26 13:55 | 20.64419 | -20.52148 | 34986 ft | 490 kts | 21° |
| 2026-04-26 13:56 | 20.74145 | -20.45911 | 34997 ft | 490 kts | 21° |
| 2026-04-26 13:56 | 20.79990 | -20.42159 | 35002 ft | 490 kts | 21° |
| 2026-04-26 13:57 | 20.85820 | -20.38413 | 34985 ft | 490 kts | 21° |
| 2026-04-26 13:57 | 20.91664 | -20.34654 | 34982 ft | 491 kts | 21° |
| 2026-04-26 13:58 | 20.97521 | -20.30883 | 34983 ft | 491 kts | 21° |
| 2026-04-26 13:58 | 21.03371 | -20.27114 | 35013 ft | 491 kts | 21° |
| 2026-04-26 13:59 | 21.09217 | -20.23344 | 35012 ft | 489 kts | 21° |
| 2026-04-26 13:59 | 21.15046 | -20.19581 | 35015 ft | 489 kts | 21° |
| 2026-04-26 14:00 | 21.26666 | -20.12069 | 35018 ft | 490 kts | 21° |
| 2026-04-26 14:01 | 21.32506 | -20.08288 | 35019 ft | 490 kts | 21° |
| 2026-04-26 14:01 | 21.38339 | -20.04508 | 35014 ft | 490 kts | 21° |
| 2026-04-26 14:02 | 21.44166 | -20.00730 | 35005 ft | 490 kts | 22° |
| 2026-04-26 14:02 | 21.50011 | -19.96935 | 35013 ft | 492 kts | 22° |
| 2026-04-26 14:03 | 21.55867 | -19.93130 | 35010 ft | 492 kts | 22° |
| 2026-04-26 14:03 | 21.60737 | -19.89962 | 35004 ft | 492 kts | 22° |
| 2026-04-26 14:04 | 21.66587 | -19.86154 | 35005 ft | 491 kts | 22° |
| 2026-04-26 14:04 | 21.72430 | -19.82347 | 35006 ft | 491 kts | 22° |
| 2026-04-26 14:05 | 21.78287 | -19.78528 | 35007 ft | 491 kts | 22° |
| 2026-04-26 14:05 | 21.84147 | -19.74702 | 35006 ft | 491 kts | 22° |
| 2026-04-26 14:06 | 21.89994 | -19.70881 | 35008 ft | 491 kts | 22° |
| 2026-04-26 14:06 | 21.95826 | -19.67067 | 35002 ft | 491 kts | 22° |
| 2026-04-26 14:07 | 22.01631 | -19.63267 | 35013 ft | 492 kts | 22° |
| 2026-04-26 14:07 | 22.07474 | -19.59437 | 35005 ft | 491 kts | 22° |
| 2026-04-26 14:08 | 22.13323 | -19.55598 | 35010 ft | 492 kts | 22° |
| 2026-04-26 14:08 | 22.19177 | -19.51754 | 35003 ft | 492 kts | 23° |
| 2026-04-26 14:09 | 22.25030 | -19.47906 | 35005 ft | 493 kts | 23° |
| 2026-04-26 14:09 | 22.30889 | -19.44050 | 34998 ft | 493 kts | 23° |
| 2026-04-26 14:10 | 22.36737 | -19.40198 | 34991 ft | 492 kts | 23° |
| 2026-04-26 14:10 | 22.42555 | -19.36362 | 35005 ft | 493 kts | 23° |
| 2026-04-26 14:11 | 22.51345 | -19.30558 | 35000 ft | 493 kts | 24° |
| 2026-04-26 14:11 | 22.57204 | -19.26685 | 34998 ft | 494 kts | 24° |
| 2026-04-26 14:12 | 22.63065 | -19.22807 | 34996 ft | 493 kts | 24° |
| 2026-04-26 14:12 | 22.68922 | -19.18928 | 35006 ft | 494 kts | 24° |
| 2026-04-26 14:13 | 22.77672 | -19.13125 | 35002 ft | 493 kts | 24° |
| 2026-04-26 14:14 | 22.83532 | -19.09234 | 35000 ft | 494 kts | 24° |
| 2026-04-26 14:14 | 22.89402 | -19.05330 | 34996 ft | 494 kts | 24° |
| 2026-04-26 14:15 | 22.95263 | -19.01431 | 35005 ft | 495 kts | 25° |
| 2026-04-26 14:15 | 23.01097 | -18.97545 | 35000 ft | 494 kts | 25° |
| 2026-04-26 14:16 | 23.06961 | -18.93635 | 35003 ft | 494 kts | 25° |
| 2026-04-26 14:16 | 23.12830 | -18.89718 | 35001 ft | 494 kts | 25° |
| 2026-04-26 14:17 | 23.18683 | -18.85807 | 34991 ft | 494 kts | 25° |
| 2026-04-26 14:17 | 23.24509 | -18.81910 | 35005 ft | 494 kts | 25° |
| 2026-04-26 14:18 | 23.30363 | -18.77990 | 34995 ft | 494 kts | 25° |
| 2026-04-26 14:18 | 23.36212 | -18.74070 | 35001 ft | 494 kts | 26° |
| 2026-04-26 14:19 | 23.42057 | -18.70149 | 34992 ft | 493 kts | 26° |
| 2026-04-26 14:19 | 23.47902 | -18.66222 | 34996 ft | 494 kts | 26° |
| 2026-04-26 14:20 | 23.53755 | -18.62286 | 35003 ft | 494 kts | 26° |
| 2026-04-26 14:20 | 23.59597 | -18.58354 | 35005 ft | 494 kts | 26° |
| 2026-04-26 14:21 | 23.65448 | -18.54412 | 35010 ft | 494 kts | 26° |
| 2026-04-26 14:21 | 23.71256 | -18.50495 | 35007 ft | 494 kts | 26° |
| 2026-04-26 14:22 | 23.77097 | -18.46550 | 35011 ft | 493 kts | 27° |
| 2026-04-26 14:22 | 23.82945 | -18.42597 | 35033 ft | 494 kts | 27° |
| 2026-04-26 14:23 | 23.88752 | -18.38668 | 35034 ft | 493 kts | 27° |
| 2026-04-26 14:23 | 23.94597 | -18.34709 | 35035 ft | 493 kts | 27° |
| 2026-04-26 14:24 | 24.00440 | -18.30746 | 35035 ft | 493 kts | 27° |
| 2026-04-26 14:24 | 24.06277 | -18.26783 | 35037 ft | 493 kts | 27° |
| 2026-04-26 14:25 | 24.12106 | -18.22823 | 35036 ft | 493 kts | 27° |
| 2026-04-26 14:25 | 24.17906 | -18.18876 | 35035 ft | 493 kts | 27° |
| 2026-04-26 14:26 | 24.23732 | -18.14908 | 35035 ft | 493 kts | 27° |
| 2026-04-26 14:26 | 24.29573 | -18.10926 | 35036 ft | 493 kts | 27° |
| 2026-04-26 14:27 | 24.35411 | -18.06941 | 35035 ft | 493 kts | 27° |
| 2026-04-26 14:27 | 24.41204 | -18.02982 | 35036 ft | 494 kts | 27° |
| 2026-04-26 14:28 | 24.47028 | -17.98998 | 35036 ft | 493 kts | 27° |
| 2026-04-26 14:28 | 24.52863 | -17.95001 | 35036 ft | 494 kts | 27° |
| 2026-04-26 14:29 | 24.58711 | -17.90993 | 35035 ft | 495 kts | 27° |
| 2026-04-26 14:29 | 24.64513 | -17.87010 | 35035 ft | 495 kts | 27° |
| 2026-04-26 14:30 | 24.70346 | -17.83002 | 35040 ft | 495 kts | 28° |
| 2026-04-26 14:30 | 24.76222 | -17.78961 | 35044 ft | 494 kts | 28° |
| 2026-04-26 14:31 | 24.82025 | -17.74965 | 35044 ft | 495 kts | 28° |
| 2026-04-26 14:31 | 24.87861 | -17.70942 | 35046 ft | 495 kts | 28° |
| 2026-04-26 14:32 | 24.93700 | -17.66913 | 35045 ft | 495 kts | 28° |
| 2026-04-26 14:32 | 24.99549 | -17.62871 | 35046 ft | 496 kts | 28° |
| 2026-04-26 14:33 | 25.05392 | -17.58820 | 35044 ft | 495 kts | 28° |
| 2026-04-26 14:33 | 25.11224 | -17.54776 | 35046 ft | 495 kts | 28° |
| 2026-04-26 14:34 | 25.17063 | -17.50722 | 35045 ft | 495 kts | 28° |
| 2026-04-26 14:34 | 25.22866 | -17.46689 | 35044 ft | 496 kts | 28° |
| 2026-04-26 14:35 | 25.28702 | -17.42628 | 35046 ft | 496 kts | 28° |
| 2026-04-26 14:35 | 25.34537 | -17.38564 | 35055 ft | 496 kts | 28° |
| 2026-04-26 14:36 | 25.40374 | -17.34492 | 35051 ft | 496 kts | 28° |
| 2026-04-26 14:36 | 25.46208 | -17.30420 | 35054 ft | 495 kts | 28° |
| 2026-04-26 14:37 | 25.52033 | -17.26348 | 35055 ft | 495 kts | 28° |
| 2026-04-26 14:37 | 25.57825 | -17.22294 | 35054 ft | 495 kts | 28° |
| 2026-04-26 14:38 | 25.63658 | -17.18207 | 35050 ft | 496 kts | 28° |
| 2026-04-26 14:38 | 25.69492 | -17.14115 | 35041 ft | 496 kts | 28° |
| 2026-04-26 14:39 | 25.75323 | -17.10020 | 35037 ft | 496 kts | 28° |
| 2026-04-26 14:39 | 25.81162 | -17.05914 | 35037 ft | 497 kts | 28° |
| 2026-04-26 14:40 | 25.86998 | -17.01806 | 35042 ft | 497 kts | 29° |
| 2026-04-26 14:40 | 25.92831 | -16.97695 | 35038 ft | 497 kts | 29° |
| 2026-04-26 14:41 | 25.98670 | -16.93574 | 35036 ft | 497 kts | 29° |
| 2026-04-26 14:41 | 26.04478 | -16.89471 | 35036 ft | 497 kts | 29° |
| 2026-04-26 14:42 | 26.10323 | -16.85338 | 35027 ft | 497 kts | 29° |
| 2026-04-26 14:42 | 26.16167 | -16.81200 | 35024 ft | 498 kts | 29° |
| 2026-04-26 14:43 | 26.21978 | -16.77086 | 35027 ft | 498 kts | 29° |
| 2026-04-26 14:43 | 26.27823 | -16.72949 | 35026 ft | 498 kts | 29° |
| 2026-04-26 14:44 | 26.33676 | -16.68801 | 35027 ft | 498 kts | 29° |
| 2026-04-26 14:44 | 26.39520 | -16.64654 | 35027 ft | 498 kts | 30° |
| 2026-04-26 14:45 | 26.45369 | -16.60499 | 35026 ft | 499 kts | 30° |
| 2026-04-26 14:45 | 26.51225 | -16.56333 | 35026 ft | 498 kts | 30° |
| 2026-04-26 14:46 | 26.57072 | -16.52169 | 35021 ft | 499 kts | 30° |
| 2026-04-26 14:46 | 26.62891 | -16.48020 | 35018 ft | 498 kts | 30° |
| 2026-04-26 14:47 | 26.68746 | -16.43840 | 35014 ft | 498 kts | 30° |
| 2026-04-26 14:47 | 26.74599 | -16.39656 | 35015 ft | 499 kts | 30° |
| 2026-04-26 14:48 | 26.80447 | -16.35471 | 35018 ft | 499 kts | 30° |
| 2026-04-26 14:48 | 26.86255 | -16.31310 | 35015 ft | 498 kts | 30° |
| 2026-04-26 14:49 | 26.92097 | -16.27112 | 35017 ft | 498 kts | 30° |
| 2026-04-26 14:49 | 26.97923 | -16.22919 | 35017 ft | 498 kts | 30° |
| 2026-04-26 14:50 | 27.02769 | -16.19427 | 35018 ft | 498 kts | 30° |
| 2026-04-26 14:50 | 27.08605 | -16.15216 | 35018 ft | 498 kts | 30° |
| 2026-04-26 14:51 | 27.14441 | -16.11001 | 35017 ft | 498 kts | 30° |
| 2026-04-26 14:51 | 27.20266 | -16.06788 | 35019 ft | 498 kts | 30° |
| 2026-04-26 14:52 | 27.26092 | -16.02570 | 35019 ft | 498 kts | 30° |
| 2026-04-26 14:52 | 27.31912 | -15.98350 | 35014 ft | 498 kts | 30° |
| 2026-04-26 14:53 | 27.37708 | -15.94142 | 35020 ft | 499 kts | 30° |
| 2026-04-26 14:53 | 27.43534 | -15.89908 | 35015 ft | 498 kts | 30° |
| 2026-04-26 14:54 | 27.49355 | -15.85672 | 35020 ft | 498 kts | 30° |
| 2026-04-26 14:54 | 27.55172 | -15.81432 | 35015 ft | 498 kts | 30° |
| 2026-04-26 14:55 | 27.60985 | -15.77190 | 35022 ft | 498 kts | 30° |
| 2026-04-26 14:55 | 27.66803 | -15.72940 | 35018 ft | 498 kts | 30° |
| 2026-04-26 14:56 | 27.72616 | -15.68688 | 35017 ft | 498 kts | 31° |
| 2026-04-26 14:56 | 27.78434 | -15.64426 | 35024 ft | 498 kts | 31° |
| 2026-04-26 14:57 | 27.84245 | -15.60164 | 35021 ft | 499 kts | 31° |
| 2026-04-26 14:57 | 27.90060 | -15.55895 | 35023 ft | 498 kts | 31° |
| 2026-04-26 14:58 | 27.95830 | -15.51652 | 35025 ft | 498 kts | 31° |
| 2026-04-26 14:58 | 28.01635 | -15.47377 | 35022 ft | 498 kts | 31° |
| 2026-04-26 14:59 | 28.07488 | -15.43225 | 35009 ft | 493 kts | 21° |
| 2026-04-26 14:59 | 28.13953 | -15.40765 | 35007 ft | 490 kts | 14° |
| 2026-04-26 15:00 | 28.20468 | -15.38446 | 35027 ft | 491 kts | 14° |
| 2026-04-26 15:00 | 28.26987 | -15.36162 | 35026 ft | 491 kts | 14° |
| 2026-04-26 15:01 | 28.33513 | -15.33876 | 35028 ft | 491 kts | 14° |
| 2026-04-26 15:01 | 28.40038 | -15.31586 | 35027 ft | 491 kts | 14° |
| 2026-04-26 15:02 | 28.46574 | -15.29290 | 35029 ft | 491 kts | 14° |
| 2026-04-26 15:02 | 28.53090 | -15.26996 | 35027 ft | 489 kts | 14° |
| 2026-04-26 15:03 | 28.59571 | -15.24715 | 35024 ft | 490 kts | 14° |
| 2026-04-26 15:03 | 28.66090 | -15.22416 | 35021 ft | 491 kts | 14° |
| 2026-04-26 15:04 | 28.72615 | -15.20112 | 35007 ft | 490 kts | 14° |
| 2026-04-26 15:04 | 28.79120 | -15.17812 | 35009 ft | 491 kts | 14° |
| 2026-04-26 15:05 | 28.85641 | -15.15503 | 35010 ft | 490 kts | 14° |
| 2026-04-26 15:05 | 28.92160 | -15.13192 | 35010 ft | 490 kts | 14° |
| 2026-04-26 15:06 | 28.98678 | -15.10878 | 35009 ft | 491 kts | 14° |
| 2026-04-26 15:06 | 29.05203 | -15.08559 | 35000 ft | 491 kts | 14° |
| 2026-04-26 15:07 | 29.14929 | -15.05096 | 35007 ft | 490 kts | 14° |
| 2026-04-26 15:07 | 29.21431 | -15.02777 | 35006 ft | 490 kts | 14° |
| 2026-04-26 15:08 | 29.27946 | -15.00451 | 35010 ft | 490 kts | 14° |
| 2026-04-26 15:08 | 29.34451 | -14.98125 | 35013 ft | 490 kts | 15° |
| 2026-04-26 15:09 | 29.40956 | -14.95795 | 35008 ft | 488 kts | 15° |
| 2026-04-26 15:09 | 29.47438 | -14.93472 | 35011 ft | 488 kts | 15° |
| 2026-04-26 15:10 | 29.52834 | -14.91534 | 35011 ft | 488 kts | 15° |
| 2026-04-26 15:10 | 29.60427 | -14.88805 | 35013 ft | 489 kts | 15° |
| 2026-04-26 15:11 | 29.66874 | -14.86484 | 35012 ft | 488 kts | 15° |
| 2026-04-26 15:11 | 29.73361 | -14.84145 | 35006 ft | 488 kts | 15° |
| 2026-04-26 15:12 | 29.79836 | -14.81808 | 35001 ft | 488 kts | 15° |
| 2026-04-26 15:12 | 29.86311 | -14.79468 | 35009 ft | 488 kts | 15° |
| 2026-04-26 15:13 | 29.92753 | -14.77136 | 35013 ft | 488 kts | 15° |
| 2026-04-26 15:13 | 29.99222 | -14.74792 | 35009 ft | 488 kts | 15° |
| 2026-04-26 15:14 | 30.05691 | -14.72444 | 35013 ft | 486 kts | 15° |
| 2026-04-26 15:14 | 30.12145 | -14.70098 | 35005 ft | 486 kts | 15° |
| 2026-04-26 15:15 | 30.18595 | -14.67751 | 35007 ft | 486 kts | 15° |
| 2026-04-26 15:15 | 30.25045 | -14.65400 | 35012 ft | 485 kts | 15° |
| 2026-04-26 15:16 | 30.31449 | -14.63064 | 35019 ft | 485 kts | 15° |
| 2026-04-26 15:16 | 30.37890 | -14.60710 | 35014 ft | 485 kts | 15° |
| 2026-04-26 15:17 | 30.43282 | -14.58736 | 35025 ft | 486 kts | 15° |
| 2026-04-26 15:17 | 30.50758 | -14.55997 | 35033 ft | 485 kts | 15° |
| 2026-04-26 15:18 | 30.57222 | -14.53625 | 35025 ft | 485 kts | 15° |
| 2026-04-26 15:18 | 30.63655 | -14.51261 | 35026 ft | 485 kts | 15° |
| 2026-04-26 15:19 | 30.70071 | -14.48901 | 35026 ft | 485 kts | 15° |
| 2026-04-26 15:19 | 30.76463 | -14.46546 | 35027 ft | 485 kts | 15° |
| 2026-04-26 15:20 | 30.82929 | -14.44160 | 35027 ft | 484 kts | 16° |
| 2026-04-26 15:20 | 30.89296 | -14.41795 | 35034 ft | 484 kts | 18° |
| 2026-04-26 15:21 | 30.95436 | -14.38544 | 35042 ft | 486 kts | 24° |